Terminal Aerodrome Forecast
Issued by NWS North Platte, NE

Home | Current Version | Previous Version | Text Only | Print | Product List | Glossary On
Versions: 1 2 3 4 5 6 7 8 9 10 11 12 13 14 15 16 17 18 19
278
FTUS43 KLBF 280520
TAFLBF
TAF
KLBF 280520Z 2806/2906 VRB03KT P6SM SKC
     FM281400 30009KT P6SM SKC
     FM281700 31012G19KT P6SM SCT250
     FM282300 31005KT P6SM BKN250=

USA.gov is the U.S. government's official web portal to all federal, state and local government web resources and services.